sensor_id;sensor_type;location;lat;lon;timestamp;pressure;altitude;pressure_sealevel;temperature;humidity
8890;BME280;4481;43.406;24.454;2023-03-11T00:00:44;75607.22;;;-144.09;100.00
8890;BME280;4481;43.406;24.454;2023-03-11T00:03:13;75588.44;;;-144.09;100.00
8890;BME280;4481;43.406;24.454;2023-03-11T00:05:41;75588.44;;;-144.09;100.00
8890;BME280;4481;43.406;24.454;2023-03-11T00:08:10;75590.50;;;-144.09;100.00
8890;BME280;4481;43.406;24.454;2023-03-11T00:10:38;75603.06;;;-144.09;100.00
8890;BME280;4481;43.406;24.454;2023-03-11T00:13:06;75632.28;;;-144.09;100.00
8890;BME280;4481;43.406;24.454;2023-03-11T00:15:34;75646.91;;;-144.09;100.00
8890;BME280;4481;43.406;24.454;2023-03-11T00:18:00;75623.94;;;-144.09;100.00
8890;BME280;4481;43.406;24.454;2023-03-11T00:20:28;75603.06;;;-144.09;100.00
8890;BME280;4481;43.406;24.454;2023-03-11T00:22:56;75582.16;;;-144.09;100.00
8890;BME280;4481;43.406;24.454;2023-03-11T00:25:24;75561.28;;;-144.09;100.00
8890;BME280;4481;43.406;24.454;2023-03-11T00:27:51;75561.28;;;-144.09;100.00
8890;BME280;4481;43.406;24.454;2023-03-11T00:30:18;75577.97;;;-144.09;100.00
8890;BME280;4481;43.406;24.454;2023-03-11T00:32:46;75573.81;;;-144.09;100.00
8890;BME280;4481;43.406;24.454;2023-03-11T00:35:13;75561.28;;;-144.09;100.00
8890;BME280;4481;43.406;24.454;2023-03-11T00:37:40;75596.78;;;-144.09;100.00
8890;BME280;4481;43.406;24.454;2023-03-11T00:40:10;75582.16;;;-144.09;100.00
8890;BME280;4481;43.406;24.454;2023-03-11T00:42:37;75582.16;;;-144.09;100.00
8890;BME280;4481;43.406;24.454;2023-03-11T00:45:04;75582.16;;;-144.09;100.00
8890;BME280;4481;43.406;24.454;2023-03-11T00:47:30;75565.44;;;-144.09;100.00
8890;BME280;4481;43.406;24.454;2023-03-11T00:49:57;75563.34;;;-144.09;100.00
8890;BME280;4481;43.406;24.454;2023-03-11T00:52:23;75588.44;;;-144.09;100.00
8890;BME280;4481;43.406;24.454;2023-03-11T00:54:49;75615.59;;;-144.09;100.00
8890;BME280;4481;43.406;24.454;2023-03-11T00:57:16;75615.59;;;-144.09;100.00
8890;BME280;4481;43.406;24.454;2023-03-11T00:59:42;75615.59;;;-144.09;100.00
8890;BME280;4481;43.406;24.454;2023-03-11T01:02:08;75623.94;;;-144.09;100.00
8890;BME280;4481;43.406;24.454;2023-03-11T01:04:34;75615.59;;;-144.09;100.00
8890;BME280;4481;43.406;24.454;2023-03-11T01:07:01;75611.41;;;-144.09;100.00
8890;BME280;4481;43.406;24.454;2023-03-11T01:09:27;75588.44;;;-144.09;100.00
8890;BME280;4481;43.406;24.454;2023-03-11T01:11:53;75596.78;;;-144.09;100.00
8890;BME280;4481;43.406;24.454;2023-03-11T01:14:20;75569.63;;;-144.09;100.00
8890;BME280;4481;43.406;24.454;2023-03-11T01:16:46;75565.44;;;-144.09;100.00
8890;BME280;4481;43.406;24.454;2023-03-11T01:19:13;75559.19;;;-144.09;100.00
8890;BME280;4481;43.406;24.454;2023-03-11T01:21:39;75544.56;;;-144.09;100.00
8890;BME280;4481;43.406;24.454;2023-03-11T01:24:06;75548.75;;;-144.09;100.00
8890;BME280;4481;43.406;24.454;2023-03-11T01:26:32;75548.75;;;-144.09;100.00
8890;BME280;4481;43.406;24.454;2023-03-11T01:28:58;75542.47;;;-144.09;100.00
8890;BME280;4481;43.406;24.454;2023-03-11T01:31:24;75542.47;;;-144.09;100.00
8890;BME280;4481;43.406;24.454;2023-03-11T01:33:50;75544.56;;;-144.09;100.00
8890;BME280;4481;43.406;24.454;2023-03-11T01:36:16;75546.66;;;-144.09;100.00
8890;BME280;4481;43.406;24.454;2023-03-11T01:38:43;75538.28;;;-144.09;100.00
8890;BME280;4481;43.406;24.454;2023-03-11T01:41:10;75515.31;;;-144.09;100.00
8890;BME280;4481;43.406;24.454;2023-03-11T01:43:49;75540.38;;;-144.09;100.00
8890;BME280;4481;43.406;24.454;2023-03-11T01:46:17;75544.56;;;-144.09;100.00
8890;BME280;4481;43.406;24.454;2023-03-11T01:48:46;75542.47;;;-144.09;100.00
8890;BME280;4481;43.406;24.454;2023-03-11T01:51:13;75540.38;;;-144.09;100.00
8890;BME280;4481;43.406;24.454;2023-03-11T01:53:40;75538.28;;;-144.09;100.00
8890;BME280;4481;43.406;24.454;2023-03-11T01:56:07;75534.13;;;-144.09;100.00
8890;BME280;4481;43.406;24.454;2023-03-11T01:58:37;75534.13;;;-144.09;100.00
8890;BME280;4481;43.406;24.454;2023-03-11T02:01:06;75532.03;;;-144.09;100.00
8890;BME280;4481;43.406;24.454;2023-03-11T02:03:35;75529.94;;;-144.09;100.00
8890;BME280;4481;43.406;24.454;2023-03-11T02:06:05;75542.47;;;-144.09;100.00
8890;BME280;4481;43.406;24.454;2023-03-11T02:08:33;75523.66;;;-144.09;100.00
8890;BME280;4481;43.406;24.454;2023-03-11T02:11:01;75525.75;;;-144.09;100.00
8890;BME280;4481;43.406;24.454;2023-03-11T02:13:28;75540.38;;;-144.09;100.00
8890;BME280;4481;43.406;24.454;2023-03-11T02:15:55;75561.28;;;-144.09;100.00
8890;BME280;4481;43.406;24.454;2023-03-11T02:18:21;75555.00;;;-144.09;100.00
8890;BME280;4481;43.406;24.454;2023-03-11T02:20:51;75544.56;;;-144.09;100.00
8890;BME280;4481;43.406;24.454;2023-03-11T02:23:25;75548.75;;;-144.09;100.00
8890;BME280;4481;43.406;24.454;2023-03-11T02:25:57;75534.13;;;-144.09;100.00
8890;BME280;4481;43.406;24.454;2023-03-11T02:28:26;75580.06;;;-144.09;100.00
8890;BME280;4481;43.406;24.454;2023-03-11T02:30:54;75571.72;;;-144.09;100.00
8890;BME280;4481;43.406;24.454;2023-03-11T02:33:23;75544.56;;;-144.09;100.00
8890;BME280;4481;43.406;24.454;2023-03-11T02:35:51;75538.28;;;-144.09;100.00
8890;BME280;4481;43.406;24.454;2023-03-11T02:38:17;75557.09;;;-144.09;100.00
8890;BME280;4481;43.406;24.454;2023-03-11T02:40:48;75544.56;;;-144.09;100.00
8890;BME280;4481;43.406;24.454;2023-03-11T02:43:19;75546.66;;;-144.09;100.00
8890;BME280;4481;43.406;24.454;2023-03-11T02:45:48;75548.75;;;-144.09;100.00
8890;BME280;4481;43.406;24.454;2023-03-11T02:48:15;75573.81;;;-144.09;100.00
8890;BME280;4481;43.406;24.454;2023-03-11T02:50:43;75567.53;;;-144.09;100.00
8890;BME280;4481;43.406;24.454;2023-03-11T02:53:11;75527.84;;;-144.09;100.00
8890;BME280;4481;43.406;24.454;2023-03-11T02:55:37;75540.38;;;-144.09;100.00
8890;BME280;4481;43.406;24.454;2023-03-11T02:58:03;75534.13;;;-144.09;100.00
8890;BME280;4481;43.406;24.454;2023-03-11T03:00:29;75542.47;;;-144.09;100.00
8890;BME280;4481;43.406;24.454;2023-03-11T03:02:57;75538.28;;;-144.09;100.00
8890;BME280;4481;43.406;24.454;2023-03-11T03:05:23;75534.13;;;-144.09;100.00
8890;BME280;4481;43.406;24.454;2023-03-11T03:07:50;75538.28;;;-144.09;100.00
8890;BME280;4481;43.406;24.454;2023-03-11T03:10:17;75575.91;;;-144.09;100.00
8890;BME280;4481;43.406;24.454;2023-03-11T03:12:44;75569.63;;;-144.09;100.00
8890;BME280;4481;43.406;24.454;2023-03-11T03:15:11;75565.44;;;-144.09;100.00
8890;BME280;4481;43.406;24.454;2023-03-11T03:17:37;75557.09;;;-144.09;100.00
8890;BME280;4481;43.406;24.454;2023-03-11T03:20:05;75557.09;;;-144.09;100.00
8890;BME280;4481;43.406;24.454;2023-03-11T03:22:36;75548.75;;;-144.09;100.00
8890;BME280;4481;43.406;24.454;2023-03-11T03:25:02;75557.09;;;-144.09;100.00
8890;BME280;4481;43.406;24.454;2023-03-11T03:27:29;75555.00;;;-144.09;100.00
8890;BME280;4481;43.406;24.454;2023-03-11T03:29:56;75561.28;;;-144.09;100.00
8890;BME280;4481;43.406;24.454;2023-03-11T03:32:22;75577.97;;;-144.09;100.00
8890;BME280;4481;43.406;24.454;2023-03-11T03:34:48;75565.44;;;-144.09;100.00
8890;BME280;4481;43.406;24.454;2023-03-11T03:37:15;75577.97;;;-144.09;100.00
8890;BME280;4481;43.406;24.454;2023-03-11T03:39:41;75575.91;;;-144.09;100.00
8890;BME280;4481;43.406;24.454;2023-03-11T03:42:07;75582.16;;;-144.09;100.00
8890;BME280;4481;43.406;24.454;2023-03-11T03:44:33;75571.72;;;-144.09;100.00
8890;BME280;4481;43.406;24.454;2023-03-11T03:46:59;75565.44;;;-144.09;100.00
8890;BME280;4481;43.406;24.454;2023-03-11T03:49:26;75565.44;;;-144.09;100.00
8890;BME280;4481;43.406;24.454;2023-03-11T03:51:52;75555.00;;;-144.09;100.00
8890;BME280;4481;43.406;24.454;2023-03-11T03:54:18;75575.91;;;-144.09;100.00
8890;BME280;4481;43.406;24.454;2023-03-11T03:56:45;75596.78;;;-144.09;100.00
8890;BME280;4481;43.406;24.454;2023-03-11T03:59:11;75617.66;;;-144.09;100.00
8890;BME280;4481;43.406;24.454;2023-03-11T04:01:37;75640.66;;;-144.09;100.00
8890;BME280;4481;43.406;24.454;2023-03-11T04:04:04;75607.22;;;-144.09;100.00
8890;BME280;4481;43.406;24.454;2023-03-11T04:06:30;75605.13;;;-144.09;100.00
8890;BME280;4481;43.406;24.454;2023-03-11T04:08:56;75600.97;;;-144.09;100.00
8890;BME280;4481;43.406;24.454;2023-03-11T04:11:23;75577.97;;;-144.09;100.00
8890;BME280;4481;43.406;24.454;2023-03-11T04:13:49;75569.63;;;-144.09;100.00
8890;BME280;4481;43.406;24.454;2023-03-11T04:16:17;75588.44;;;-144.09;100.00
8890;BME280;4481;43.406;24.454;2023-03-11T04:18:44;75588.44;;;-144.09;100.00
8890;BME280;4481;43.406;24.454;2023-03-11T04:21:10;75603.06;;;-144.09;100.00
8890;BME280;4481;43.406;24.454;2023-03-11T04:23:36;75598.88;;;-144.09;100.00
8890;BME280;4481;43.406;24.454;2023-03-11T04:26:03;75605.13;;;-144.09;100.00
8890;BME280;4481;43.406;24.454;2023-03-11T04:28:30;75611.41;;;-144.09;100.00
8890;BME280;4481;43.406;24.454;2023-03-11T04:30:56;75598.88;;;-144.09;100.00
8890;BME280;4481;43.406;24.454;2023-03-11T04:33:22;75615.59;;;-144.09;100.00
8890;BME280;4481;43.406;24.454;2023-03-11T04:35:49;75615.59;;;-144.09;100.00
8890;BME280;4481;43.406;24.454;2023-03-11T04:38:15;75615.59;;;-144.09;100.00
8890;BME280;4481;43.406;24.454;2023-03-11T04:40:41;75607.22;;;-144.09;100.00
8890;BME280;4481;43.406;24.454;2023-03-11T04:43:08;75596.78;;;-144.09;100.00
8890;BME280;4481;43.406;24.454;2023-03-11T04:45:37;75603.06;;;-144.09;100.00
8890;BME280;4481;43.406;24.454;2023-03-11T04:48:03;75600.97;;;-144.09;100.00
8890;BME280;4481;43.406;24.454;2023-03-11T04:50:30;75609.31;;;-144.09;100.00
8890;BME280;4481;43.406;24.454;2023-03-11T04:52:56;75598.88;;;-144.09;100.00
8890;BME280;4481;43.406;24.454;2023-03-11T04:55:22;75603.06;;;-144.09;100.00
8890;BME280;4481;43.406;24.454;2023-03-11T04:57:48;75623.94;;;-144.09;100.00
8890;BME280;4481;43.406;24.454;2023-03-11T05:00:15;75607.22;;;-144.09;100.00
8890;BME280;4481;43.406;24.454;2023-03-11T05:02:42;75617.66;;;-144.09;100.00
8890;BME280;4481;43.406;24.454;2023-03-11T05:05:08;75617.66;;;-144.09;100.00
8890;BME280;4481;43.406;24.454;2023-03-11T05:07:35;75615.59;;;-144.09;100.00
8890;BME280;4481;43.406;24.454;2023-03-11T05:10:02;75600.97;;;-144.09;100.00
8890;BME280;4481;43.406;24.454;2023-03-11T05:12:28;75632.28;;;-144.09;100.00
8890;BME280;4481;43.406;24.454;2023-03-11T05:14:54;75651.09;;;-144.09;100.00
8890;BME280;4481;43.406;24.454;2023-03-11T05:17:20;75657.38;;;-144.09;100.00
8890;BME280;4481;43.406;24.454;2023-03-11T05:19:47;75655.28;;;-144.09;100.00
8890;BME280;4481;43.406;24.454;2023-03-11T05:22:13;75661.53;;;-144.09;100.00
8890;BME280;4481;43.406;24.454;2023-03-11T05:24:40;75646.91;;;-144.09;100.00
8890;BME280;4481;43.406;24.454;2023-03-11T05:27:06;75632.28;;;-144.09;100.00
8890;BME280;4481;43.406;24.454;2023-03-11T05:29:32;75619.75;;;-144.09;100.00
8890;BME280;4481;43.406;24.454;2023-03-11T05:31:58;75605.13;;;-144.09;100.00
8890;BME280;4481;43.406;24.454;2023-03-11T05:34:24;75607.22;;;-144.09;100.00
8890;BME280;4481;43.406;24.454;2023-03-11T05:36:51;75592.59;;;-144.09;100.00
8890;BME280;4481;43.406;24.454;2023-03-11T05:39:17;75573.81;;;-144.09;100.00
8890;BME280;4481;43.406;24.454;2023-03-11T05:41:44;75569.63;;;-144.09;100.00
8890;BME280;4481;43.406;24.454;2023-03-11T05:44:10;75569.63;;;-144.09;100.00
8890;BME280;4481;43.406;24.454;2023-03-11T05:46:36;75561.28;;;-144.09;100.00
8890;BME280;4481;43.406;24.454;2023-03-11T05:49:02;75552.91;;;-144.09;100.00
8890;BME280;4481;43.406;24.454;2023-03-11T05:51:28;75548.75;;;-144.09;100.00
8890;BME280;4481;43.406;24.454;2023-03-11T05:53:55;75552.91;;;-144.09;100.00
8890;BME280;4481;43.406;24.454;2023-03-11T05:56:22;75542.47;;;-144.09;100.00
8890;BME280;4481;43.406;24.454;2023-03-11T05:58:48;75550.81;;;-144.09;100.00
8890;BME280;4481;43.406;24.454;2023-03-11T06:01:17;75559.19;;;-144.09;100.00
8890;BME280;4481;43.406;24.454;2023-03-11T06:03:43;75550.81;;;-144.09;100.00
8890;BME280;4481;43.406;24.454;2023-03-11T06:06:11;75552.91;;;-144.09;100.00
8890;BME280;4481;43.406;24.454;2023-03-11T06:08:38;75563.34;;;-144.09;100.00
8890;BME280;4481;43.406;24.454;2023-03-11T06:11:06;75584.25;;;-144.09;100.00
8890;BME280;4481;43.406;24.454;2023-03-11T06:13:33;75619.75;;;-144.09;100.00
8890;BME280;4481;43.406;24.454;2023-03-11T06:15:59;75613.50;;;-144.09;100.00
8890;BME280;4481;43.406;24.454;2023-03-11T06:18:26;75598.88;;;-144.09;100.00
8890;BME280;4481;43.406;24.454;2023-03-11T06:20:52;75605.13;;;-144.09;100.00
8890;BME280;4481;43.406;24.454;2023-03-11T06:23:19;75596.78;;;-144.09;100.00
8890;BME280;4481;43.406;24.454;2023-03-11T06:25:54;75592.59;;;-144.09;100.00
8890;BME280;4481;43.406;24.454;2023-03-11T06:28:21;75582.16;;;-144.09;100.00
8890;BME280;4481;43.406;24.454;2023-03-11T06:30:47;75592.59;;;-144.09;100.00
8890;BME280;4481;43.406;24.454;2023-03-11T06:33:14;75582.16;;;-144.09;100.00
8890;BME280;4481;43.406;24.454;2023-03-11T06:35:40;75582.16;;;-144.09;100.00
8890;BME280;4481;43.406;24.454;2023-03-11T06:38:06;75577.97;;;-144.09;100.00
8890;BME280;4481;43.406;24.454;2023-03-11T06:40:32;75555.00;;;-144.09;100.00
8890;BME280;4481;43.406;24.454;2023-03-11T06:42:58;75561.28;;;-144.09;100.00
8890;BME280;4481;43.406;24.454;2023-03-11T06:45:25;75540.38;;;-144.09;100.00
8890;BME280;4481;43.406;24.454;2023-03-11T06:47:51;75540.38;;;-144.09;100.00
8890;BME280;4481;43.406;24.454;2023-03-11T06:50:17;75529.94;;;-144.09;100.00
8890;BME280;4481;43.406;24.454;2023-03-11T06:52:44;75546.66;;;-144.09;100.00
8890;BME280;4481;43.406;24.454;2023-03-11T06:55:10;75544.56;;;-144.09;100.00
8890;BME280;4481;43.406;24.454;2023-03-11T06:57:36;75529.94;;;-144.09;100.00
8890;BME280;4481;43.406;24.454;2023-03-11T07:00:03;75517.41;;;-144.09;100.00
8890;BME280;4481;43.406;24.454;2023-03-11T07:02:32;75515.31;;;-144.09;100.00
8890;BME280;4481;43.406;24.454;2023-03-11T07:04:58;75515.31;;;-144.09;100.00
8890;BME280;4481;43.406;24.454;2023-03-11T07:07:24;75506.97;;;-144.09;100.00
8890;BME280;4481;43.406;24.454;2023-03-11T07:09:54;75492.34;;;-144.09;100.00
8890;BME280;4481;43.406;24.454;2023-03-11T07:12:20;75486.06;;;-144.09;100.00
8890;BME280;4481;43.406;24.454;2023-03-11T07:14:47;75483.97;;;-144.09;100.00
8890;BME280;4481;43.406;24.454;2023-03-11T07:17:13;75479.81;;;-144.09;100.00
8890;BME280;4481;43.406;24.454;2023-03-11T07:19:40;75473.53;;;-144.09;100.00
8890;BME280;4481;43.406;24.454;2023-03-11T07:22:06;75471.44;;;-144.09;100.00
8890;BME280;4481;43.406;24.454;2023-03-11T07:24:32;75440.13;;;-144.09;100.00
8890;BME280;4481;43.406;24.454;2023-03-11T07:26:58;75425.50;;;-144.09;100.00
8890;BME280;4481;43.406;24.454;2023-03-11T07:29:24;75417.13;;;-144.09;100.00
8890;BME280;4481;43.406;24.454;2023-03-11T07:31:50;75400.44;;;-144.09;100.00
8890;BME280;4481;43.406;24.454;2023-03-11T07:34:17;75396.25;;;-144.09;100.00
8890;BME280;4481;43.406;24.454;2023-03-11T07:36:44;75387.88;;;-144.09;100.00
8890;BME280;4481;43.406;24.454;2023-03-11T07:39:13;75377.44;;;-144.09;100.00
8890;BME280;4481;43.406;24.454;2023-03-11T07:41:39;75321.06;;;-144.09;100.00
8890;BME280;4481;43.406;24.454;2023-03-11T07:44:06;75281.38;;;-144.09;100.00
8890;BME280;4481;43.406;24.454;2023-03-11T07:46:32;75241.69;;;-144.09;99.96
8890;BME280;4481;43.406;24.454;2023-03-11T07:48:59;75235.41;;;-144.09;98.72
8890;BME280;4481;43.406;24.454;2023-03-11T07:51:28;75229.16;;;-144.09;97.18
8890;BME280;4481;43.406;24.454;2023-03-11T07:53:56;75250.03;;;-144.09;98.02
8890;BME280;4481;43.406;24.454;2023-03-11T07:56:24;75243.75;;;-144.09;98.20
8890;BME280;4481;43.406;24.454;2023-03-11T07:58:50;75191.53;;;-144.09;97.24
8890;BME280;4481;43.406;24.454;2023-03-11T08:01:19;75189.47;;;-144.09;96.73
8890;BME280;4481;43.406;24.454;2023-03-11T08:03:47;75187.38;;;-144.09;97.15
8890;BME280;4481;43.406;24.454;2023-03-11T08:06:15;75170.66;;;-144.09;96.87
8890;BME280;4481;43.406;24.454;2023-03-11T08:08:42;75156.03;;;-144.09;96.71
8890;BME280;4481;43.406;24.454;2023-03-11T08:11:09;75141.41;;;-144.09;95.96
8890;BME280;4481;43.406;24.454;2023-03-11T08:13:35;75143.50;;;-144.09;95.53
8890;BME280;4481;43.406;24.454;2023-03-11T08:16:03;75116.34;;;-144.09;94.14
8890;BME280;4481;43.406;24.454;2023-03-11T08:18:29;75122.63;;;-144.09;94.03
8890;BME280;4481;43.406;24.454;2023-03-11T08:20:55;75110.09;;;-144.09;92.35
8890;BME280;4481;43.406;24.454;2023-03-11T08:23:22;75110.09;;;-144.09;92.29
8890;BME280;4481;43.406;24.454;2023-03-11T08:25:48;75095.47;;;-144.09;91.76
8890;BME280;4481;43.406;24.454;2023-03-11T08:28:15;75087.13;;;-144.09;91.02
8890;BME280;4481;43.406;24.454;2023-03-11T08:30:41;75095.47;;;-144.09;92.80
8890;BME280;4481;43.406;24.454;2023-03-11T08:33:07;75112.19;;;-144.09;92.62
8890;BME280;4481;43.406;24.454;2023-03-11T08:35:33;75095.47;;;-144.09;92.33
8890;BME280;4481;43.406;24.454;2023-03-11T08:37:59;75105.91;;;-144.09;92.39
8890;BME280;4481;43.406;24.454;2023-03-11T08:40:26;75066.22;;;-144.09;92.03
8890;BME280;4481;43.406;24.454;2023-03-11T08:42:54;75053.69;;;-144.09;92.21
8890;BME280;4481;43.406;24.454;2023-03-11T08:45:21;75066.22;;;-144.09;90.50
8890;BME280;4481;43.406;24.454;2023-03-11T08:47:47;75070.41;;;-144.09;91.18
8890;BME280;4481;43.406;24.454;2023-03-11T08:50:15;75043.25;;;-144.09;90.20
8890;BME280;4481;43.406;24.454;2023-03-11T08:52:41;75043.25;;;-144.09;90.37
8890;BME280;4481;43.406;24.454;2023-03-11T08:55:08;75030.72;;;-144.09;89.30
8890;BME280;4481;43.406;24.454;2023-03-11T08:57:36;75036.97;;;-144.09;89.15
8890;BME280;4481;43.406;24.454;2023-03-11T09:00:03;75030.72;;;-144.09;88.90
8890;BME280;4481;43.406;24.454;2023-03-11T09:02:30;75014.00;;;-144.09;88.18
8890;BME280;4481;43.406;24.454;2023-03-11T09:04:56;75005.66;;;-144.09;88.91
8890;BME280;4481;43.406;24.454;2023-03-11T09:07:22;74978.50;;;-144.09;86.09
8890;BME280;4481;43.406;24.454;2023-03-11T09:09:49;74963.88;;;-144.09;86.56
8890;BME280;4481;43.406;24.454;2023-03-11T09:12:15;74988.94;;;-144.09;86.94
8890;BME280;4481;43.406;24.454;2023-03-11T09:14:42;74978.50;;;-144.09;87.00
8890;BME280;4481;43.406;24.454;2023-03-11T09:17:09;74965.97;;;-144.09;86.77
8890;BME280;4481;43.406;24.454;2023-03-11T09:19:37;74978.50;;;-144.09;86.71
8890;BME280;4481;43.406;24.454;2023-03-11T09:22:04;74976.41;;;-144.09;87.25
8890;BME280;4481;43.406;24.454;2023-03-11T09:24:32;74986.84;;;-144.09;86.79
8890;BME280;4481;43.406;24.454;2023-03-11T09:26:59;74980.59;;;-144.09;86.15
8890;BME280;4481;43.406;24.454;2023-03-11T09:29:25;74953.44;;;-144.09;87.17
8890;BME280;4481;43.406;24.454;2023-03-11T09:31:51;74926.28;;;-144.09;86.73
8890;BME280;4481;43.406;24.454;2023-03-11T09:34:17;74943.00;;;-144.09;87.67
8890;BME280;4481;43.406;24.454;2023-03-11T09:36:44;74955.53;;;-144.09;84.03
8890;BME280;4481;43.406;24.454;2023-03-11T09:39:11;74951.34;;;-144.09;84.35
8890;BME280;4481;43.406;24.454;2023-03-11T09:41:41;74953.44;;;-144.09;84.23
8890;BME280;4481;43.406;24.454;2023-03-11T09:44:17;74934.66;;;-144.09;85.43
8890;BME280;4481;43.406;24.454;2023-03-11T09:46:58;74945.09;;;-144.09;83.51
8890;BME280;4481;43.406;24.454;2023-03-11T09:49:37;74953.44;;;-144.09;84.12
8890;BME280;4481;43.406;24.454;2023-03-11T09:52:10;74955.53;;;-144.09;84.04
8890;BME280;4481;43.406;24.454;2023-03-11T09:54:39;74951.34;;;-144.09;84.91
8890;BME280;4481;43.406;24.454;2023-03-11T09:57:08;74928.38;;;-144.09;85.36
8890;BME280;4481;43.406;24.454;2023-03-11T09:59:39;74909.56;;;-144.09;84.73
8890;BME280;4481;43.406;24.454;2023-03-11T10:02:11;74878.25;;;-144.09;85.00
8890;BME280;4481;43.406;24.454;2023-03-11T10:04:42;74874.06;;;-144.09;82.72
8890;BME280;4481;43.406;24.454;2023-03-11T10:07:14;74861.53;;;-144.09;82.81
8890;BME280;4481;43.406;24.454;2023-03-11T10:09:48;74880.34;;;-144.09;83.21
8890;BME280;4481;43.406;24.454;2023-03-11T10:12:25;74913.75;;;-144.09;84.40
8890;BME280;4481;43.406;24.454;2023-03-11T10:15:06;74938.81;;;-144.09;85.85
8890;BME280;4481;43.406;24.454;2023-03-11T10:17:49;74949.25;;;-144.09;86.00
8890;BME280;4481;43.406;24.454;2023-03-11T10:20:21;74940.91;;;-144.09;84.47
8890;BME280;4481;43.406;24.454;2023-03-11T10:22:58;74922.09;;;-144.09;84.02
8890;BME280;4481;43.406;24.454;2023-03-11T10:25:29;74909.56;;;-144.09;84.38
8890;BME280;4481;43.406;24.454;2023-03-11T10:28:07;74911.66;;;-144.09;84.53
8890;BME280;4481;43.406;24.454;2023-03-11T10:30:40;74907.50;;;-144.09;84.52
8890;BME280;4481;43.406;24.454;2023-03-11T10:33:16;74905.41;;;-144.09;85.44
8890;BME280;4481;43.406;24.454;2023-03-11T10:35:45;74903.31;;;-144.09;85.59
8890;BME280;4481;43.406;24.454;2023-03-11T10:38:17;74899.13;;;-144.09;83.99
8890;BME280;4481;43.406;24.454;2023-03-11T10:40:46;74913.75;;;-144.09;85.54
8890;BME280;4481;43.406;24.454;2023-03-11T10:43:15;74903.31;;;-144.09;84.10
8890;BME280;4481;43.406;24.454;2023-03-11T10:45:43;74926.28;;;-144.09;84.96
8890;BME280;4481;43.406;24.454;2023-03-11T10:48:12;74913.75;;;-144.09;85.22
8890;BME280;4481;43.406;24.454;2023-03-11T10:50:46;74888.69;;;-144.09;85.41
8890;BME280;4481;43.406;24.454;2023-03-11T10:53:16;74888.69;;;-144.09;84.75
8890;BME280;4481;43.406;24.454;2023-03-11T10:55:48;74907.50;;;-144.09;85.17
8890;BME280;4481;43.406;24.454;2023-03-11T10:58:16;74892.88;;;-144.09;83.29
8890;BME280;4481;43.406;24.454;2023-03-11T11:00:43;74901.22;;;-144.09;82.38
8890;BME280;4481;43.406;24.454;2023-03-11T11:03:19;74920.03;;;-144.09;82.39
8890;BME280;4481;43.406;24.454;2023-03-11T11:05:57;74894.97;;;-144.09;82.33
8890;BME280;4481;43.406;24.454;2023-03-11T11:08:24;74876.16;;;-144.09;83.82
8890;BME280;4481;43.406;24.454;2023-03-11T11:10:52;74905.41;;;-144.09;83.22
8890;BME280;4481;43.406;24.454;2023-03-11T11:13:21;74909.56;;;-144.09;82.38
8890;BME280;4481;43.406;24.454;2023-03-11T11:15:53;74909.56;;;-144.09;83.09
8890;BME280;4481;43.406;24.454;2023-03-11T11:18:21;74905.41;;;-144.09;83.97
8890;BME280;4481;43.406;24.454;2023-03-11T11:21:01;74903.31;;;-144.09;85.54
8890;BME280;4481;43.406;24.454;2023-03-11T11:23:33;74907.50;;;-144.09;83.82
8890;BME280;4481;43.406;24.454;2023-03-11T11:26:03;74911.66;;;-144.09;83.94
8890;BME280;4481;43.406;24.454;2023-03-11T11:28:31;74905.41;;;-144.09;85.06
8890;BME280;4481;43.406;24.454;2023-03-11T11:30:58;74905.41;;;-144.09;82.35
8890;BME280;4481;43.406;24.454;2023-03-11T11:33:28;74894.97;;;-144.09;82.62
8890;BME280;4481;43.406;24.454;2023-03-11T11:35:56;74876.16;;;-144.09;83.59
8890;BME280;4481;43.406;24.454;2023-03-11T11:38:25;74886.59;;;-144.09;84.57
8890;BME280;4481;43.406;24.454;2023-03-11T11:40:54;74897.06;;;-144.09;84.82
8890;BME280;4481;43.406;24.454;2023-03-11T11:43:29;74901.22;;;-144.09;85.05
8890;BME280;4481;43.406;24.454;2023-03-11T11:46:01;74911.66;;;-144.09;85.07
8890;BME280;4481;43.406;24.454;2023-03-11T11:48:37;74903.31;;;-144.09;85.32
8890;BME280;4481;43.406;24.454;2023-03-11T11:51:11;74901.22;;;-144.09;83.42
8890;BME280;4481;43.406;24.454;2023-03-11T11:53:43;74899.13;;;-144.09;81.94
8890;BME280;4481;43.406;24.454;2023-03-11T11:56:12;74878.25;;;-144.09;82.99
8890;BME280;4481;43.406;24.454;2023-03-11T11:58:39;74859.47;;;-144.09;84.19
8890;BME280;4481;43.406;24.454;2023-03-11T12:01:13;74857.38;;;-144.09;85.85
8890;BME280;4481;43.406;24.454;2023-03-11T12:06:53;74880.34;;;-144.09;84.54
8890;BME280;4481;43.406;24.454;2023-03-11T12:09:27;74871.97;;;-144.09;84.61
8890;BME280;4481;43.406;24.454;2023-03-11T12:12:03;74863.63;;;-144.09;85.59
8890;BME280;4481;43.406;24.454;2023-03-11T12:14:38;74867.81;;;-144.09;84.40
8890;BME280;4481;43.406;24.454;2023-03-11T12:17:10;74869.91;;;-144.09;83.84
8890;BME280;4481;43.406;24.454;2023-03-11T12:19:42;74880.34;;;-144.09;84.67
8890;BME280;4481;43.406;24.454;2023-03-11T12:22:30;74880.34;;;-144.09;85.42
8890;BME280;4481;43.406;24.454;2023-03-11T12:25:15;74888.69;;;-144.09;84.09
8890;BME280;4481;43.406;24.454;2023-03-11T12:27:48;74892.88;;;-144.09;84.06
8890;BME280;4481;43.406;24.454;2023-03-11T12:30:19;74884.50;;;-144.09;84.25
8890;BME280;4481;43.406;24.454;2023-03-11T12:32:50;74878.25;;;-144.09;82.51
8890;BME280;4481;43.406;24.454;2023-03-11T12:35:22;74878.25;;;-144.09;83.29
8890;BME280;4481;43.406;24.454;2023-03-11T12:37:58;74903.31;;;-144.09;82.90
8890;BME280;4481;43.406;24.454;2023-03-11T12:40:49;74903.31;;;-144.09;83.33
8890;BME280;4481;43.406;24.454;2023-03-11T12:47:10;74913.75;;;-144.09;82.09
8890;BME280;4481;43.406;24.454;2023-03-11T12:49:43;74913.75;;;-144.09;82.25
8890;BME280;4481;43.406;24.454;2023-03-11T12:52:20;74913.75;;;-144.09;82.42
8890;BME280;4481;43.406;24.454;2023-03-11T12:54:48;74915.84;;;-144.09;81.96